sensor_id;sensor_type;location;lat;lon;timestamp;pressure;altitude;pressure_sealevel;temperature;humidity
19751;BME280;4663;49.120;9.730;2023-01-28T00:01:37;98641.00;;;-3.19;77.54
19751;BME280;4663;49.120;9.730;2023-01-28T00:04:02;98651.56;;;-3.70;79.08
19751;BME280;4663;49.120;9.730;2023-01-28T00:06:28;98654.50;;;-3.41;78.50
19751;BME280;4663;49.120;9.730;2023-01-28T00:08:53;98650.25;;;-3.28;77.59
19751;BME280;4663;49.120;9.730;2023-01-28T00:11:20;98647.09;;;-3.34;77.37
19751;BME280;4663;49.120;9.730;2023-01-28T00:13:50;98645.31;;;-3.34;77.88
19751;BME280;4663;49.120;9.730;2023-01-28T00:16:17;98644.38;;;-3.33;77.57
19751;BME280;4663;49.120;9.730;2023-01-28T00:18:42;98645.63;;;-3.40;78.23
19751;BME280;4663;49.120;9.730;2023-01-28T00:21:12;98644.53;;;-3.36;77.62
19751;BME280;4663;49.120;9.730;2023-01-28T00:23:39;98638.75;;;-3.27;77.59
19751;BME280;4663;49.120;9.730;2023-01-28T00:26:08;98639.81;;;-3.13;77.65
19751;BME280;4663;49.120;9.730;2023-01-28T00:28:34;98633.38;;;-3.25;77.15
19751;BME280;4663;49.120;9.730;2023-01-28T00:31:22;98627.09;;;-3.22;77.16
19751;BME280;4663;49.120;9.730;2023-01-28T00:33:49;98620.72;;;-3.02;76.81
19751;BME280;4663;49.120;9.730;2023-01-28T00:36:15;98623.44;;;-3.04;76.13
19751;BME280;4663;49.120;9.730;2023-01-28T00:38:42;98624.47;;;-3.06;76.47
19751;BME280;4663;49.120;9.730;2023-01-28T00:43:34;98630.25;;;-3.16;77.24
19751;BME280;4663;49.120;9.730;2023-01-28T00:45:59;98629.91;;;-3.09;77.20
19751;BME280;4663;49.120;9.730;2023-01-28T00:48:24;98637.41;;;-3.18;76.98
19751;BME280;4663;49.120;9.730;2023-01-28T00:50:50;98634.41;;;-3.28;77.82
19751;BME280;4663;49.120;9.730;2023-01-28T00:53:15;98639.38;;;-3.21;77.37
19751;BME280;4663;49.120;9.730;2023-01-28T00:55:41;98646.00;;;-3.30;78.85
19751;BME280;4663;49.120;9.730;2023-01-28T00:58:06;98638.50;;;-3.22;78.24
19751;BME280;4663;49.120;9.730;2023-01-28T01:00:32;98631.88;;;-3.13;77.60
19751;BME280;4663;49.120;9.730;2023-01-28T01:02:57;98634.09;;;-3.05;78.24
19751;BME280;4663;49.120;9.730;2023-01-28T01:05:23;98626.75;;;-3.16;77.64
19751;BME280;4663;49.120;9.730;2023-01-28T01:07:48;98639.28;;;-3.20;78.24
19751;BME280;4663;49.120;9.730;2023-01-28T01:10:17;98624.53;;;-3.08;78.37
19751;BME280;4663;49.120;9.730;2023-01-28T01:12:45;98632.81;;;-3.14;78.07
19751;BME280;4663;49.120;9.730;2023-01-28T01:15:10;98635.91;;;-3.06;78.16
19751;BME280;4663;49.120;9.730;2023-01-28T01:17:37;98636.88;;;-3.24;78.45
19751;BME280;4663;49.120;9.730;2023-01-28T01:20:04;98636.81;;;-3.23;78.78
19751;BME280;4663;49.120;9.730;2023-01-28T01:22:34;98640.78;;;-3.32;79.34
19751;BME280;4663;49.120;9.730;2023-01-28T01:24:59;98650.31;;;-3.45;79.48
19751;BME280;4663;49.120;9.730;2023-01-28T01:27:25;98633.53;;;-2.94;78.34
19751;BME280;4663;49.120;9.730;2023-01-28T01:29:50;98640.31;;;-3.22;78.32
19751;BME280;4663;49.120;9.730;2023-01-28T01:32:15;98641.22;;;-3.23;79.01
19751;BME280;4663;49.120;9.730;2023-01-28T01:34:42;98643.28;;;-3.13;79.08
19751;BME280;4663;49.120;9.730;2023-01-28T01:37:08;98644.72;;;-3.07;78.61
19751;BME280;4663;49.120;9.730;2023-01-28T01:39:35;98646.78;;;-3.28;79.31
19751;BME280;4663;49.120;9.730;2023-01-28T01:42:01;98651.03;;;-3.26;79.29
19751;BME280;4663;49.120;9.730;2023-01-28T01:44:56;98652.22;;;-3.15;79.63
19751;BME280;4663;49.120;9.730;2023-01-28T01:52:45;98650.31;;;-3.29;79.47
19751;BME280;4663;49.120;9.730;2023-01-28T01:55:16;98639.81;;;-2.97;79.21
19751;BME280;4663;49.120;9.730;2023-01-28T01:57:44;98652.06;;;-3.12;79.34
19751;BME280;4663;49.120;9.730;2023-01-28T02:00:11;98650.38;;;-2.97;79.29
19751;BME280;4663;49.120;9.730;2023-01-28T02:02:40;98650.47;;;-2.98;79.23
19751;BME280;4663;49.120;9.730;2023-01-28T02:05:08;98651.94;;;-3.27;80.12
19751;BME280;4663;49.120;9.730;2023-01-28T02:07:35;98653.34;;;-3.19;80.33
19751;BME280;4663;49.120;9.730;2023-01-28T02:10:02;98658.31;;;-3.47;80.81
19751;BME280;4663;49.120;9.730;2023-01-28T02:12:39;98659.78;;;-3.25;80.91
19751;BME280;4663;49.120;9.730;2023-01-28T02:15:12;98652.28;;;-3.33;80.66
19751;BME280;4663;49.120;9.730;2023-01-28T02:17:39;98660.41;;;-3.20;80.79
19751;BME280;4663;49.120;9.730;2023-01-28T02:20:10;98667.47;;;-3.20;80.59
19751;BME280;4663;49.120;9.730;2023-01-28T02:28:22;98659.25;;;-3.14;80.00
19751;BME280;4663;49.120;9.730;2023-01-28T02:33:22;98656.25;;;-3.08;80.06
19751;BME280;4663;49.120;9.730;2023-01-28T02:35:53;98658.91;;;-3.08;80.59
19751;BME280;4663;49.120;9.730;2023-01-28T02:38:25;98652.78;;;-2.92;80.10
19751;BME280;4663;49.120;9.730;2023-01-28T02:41:06;98651.06;;;-2.93;79.65
19751;BME280;4663;49.120;9.730;2023-01-28T02:43:44;98660.31;;;-2.84;79.22
19751;BME280;4663;49.120;9.730;2023-01-28T02:49:17;98666.50;;;-3.02;80.13
19751;BME280;4663;49.120;9.730;2023-01-28T03:03:25;98671.97;;;-2.89;80.01
19751;BME280;4663;49.120;9.730;2023-01-28T03:05:58;98685.31;;;-3.08;80.97
19751;BME280;4663;49.120;9.730;2023-01-28T03:11:37;98681.91;;;-3.10;81.87
19751;BME280;4663;49.120;9.730;2023-01-28T03:14:23;98680.97;;;-3.09;82.93
19751;BME280;4663;49.120;9.730;2023-01-28T03:17:14;98688.91;;;-3.09;83.19
19751;BME280;4663;49.120;9.730;2023-01-28T03:20:00;98672.22;;;-2.93;82.79
19751;BME280;4663;49.120;9.730;2023-01-28T03:22:45;98685.00;;;-3.02;82.92
19751;BME280;4663;49.120;9.730;2023-01-28T03:25:32;98688.31;;;-3.32;84.34
19751;BME280;4663;49.120;9.730;2023-01-28T03:28:18;98682.16;;;-3.48;85.06
19751;BME280;4663;49.120;9.730;2023-01-28T03:31:05;98684.13;;;-3.02;84.52
19751;BME280;4663;49.120;9.730;2023-01-28T03:33:52;98689.47;;;-2.86;83.47
19751;BME280;4663;49.120;9.730;2023-01-28T03:36:37;98688.59;;;-2.87;83.28
19751;BME280;4663;49.120;9.730;2023-01-28T03:39:14;98692.41;;;-2.92;83.66
19751;BME280;4663;49.120;9.730;2023-01-28T03:41:39;98689.94;;;-2.95;83.58
19751;BME280;4663;49.120;9.730;2023-01-28T03:44:05;98686.03;;;-2.88;83.54
19751;BME280;4663;49.120;9.730;2023-01-28T03:46:49;98692.50;;;-3.10;84.38
19751;BME280;4663;49.120;9.730;2023-01-28T03:49:16;98694.56;;;-2.83;83.53
19751;BME280;4663;49.120;9.730;2023-01-28T03:51:41;98691.41;;;-2.90;83.51
19751;BME280;4663;49.120;9.730;2023-01-28T03:54:07;98690.81;;;-2.79;83.01
19751;BME280;4663;49.120;9.730;2023-01-28T03:56:32;98698.13;;;-2.84;82.84
19751;BME280;4663;49.120;9.730;2023-01-28T03:59:02;98706.56;;;-2.93;83.89
19751;BME280;4663;49.120;9.730;2023-01-28T04:01:27;98701.50;;;-3.14;84.33
19751;BME280;4663;49.120;9.730;2023-01-28T04:03:53;98706.75;;;-3.30;85.11
19751;BME280;4663;49.120;9.730;2023-01-28T04:06:18;98706.59;;;-3.27;85.20
19751;BME280;4663;49.120;9.730;2023-01-28T04:08:43;98711.41;;;-3.35;85.41
19751;BME280;4663;49.120;9.730;2023-01-28T04:11:13;98705.94;;;-3.15;85.60
19751;BME280;4663;49.120;9.730;2023-01-28T04:13:44;98706.13;;;-3.53;86.21
19751;BME280;4663;49.120;9.730;2023-01-28T04:16:11;98712.59;;;-3.59;87.62
19751;BME280;4663;49.120;9.730;2023-01-28T04:18:36;98717.63;;;-3.36;87.80
19751;BME280;4663;49.120;9.730;2023-01-28T04:21:02;98717.16;;;-3.45;87.67
19751;BME280;4663;49.120;9.730;2023-01-28T04:23:27;98721.78;;;-3.66;87.91
19751;BME280;4663;49.120;9.730;2023-01-28T04:25:54;98721.16;;;-3.54;88.54
19751;BME280;4663;49.120;9.730;2023-01-28T04:28:19;98727.56;;;-3.42;87.77
19751;BME280;4663;49.120;9.730;2023-01-28T04:30:44;98726.09;;;-3.30;87.39
19751;BME280;4663;49.120;9.730;2023-01-28T04:33:10;98719.50;;;-3.39;87.54
19751;BME280;4663;49.120;9.730;2023-01-28T04:35:35;98725.28;;;-3.14;87.55
19751;BME280;4663;49.120;9.730;2023-01-28T04:38:01;98736.91;;;-3.70;88.90
19751;BME280;4663;49.120;9.730;2023-01-28T04:40:26;98734.81;;;-3.45;88.51
19751;BME280;4663;49.120;9.730;2023-01-28T04:42:53;98728.09;;;-3.17;87.64
19751;BME280;4663;49.120;9.730;2023-01-28T04:45:19;98721.72;;;-2.97;86.92
19751;BME280;4663;49.120;9.730;2023-01-28T04:47:44;98725.66;;;-3.04;86.48
19751;BME280;4663;49.120;9.730;2023-01-28T04:50:10;98719.66;;;-3.08;86.26
19751;BME280;4663;49.120;9.730;2023-01-28T04:52:35;98720.97;;;-3.33;86.48
19751;BME280;4663;49.120;9.730;2023-01-28T04:55:00;98729.78;;;-2.98;86.40
19751;BME280;4663;49.120;9.730;2023-01-28T04:57:27;98730.81;;;-3.19;86.54
19751;BME280;4663;49.120;9.730;2023-01-28T04:59:53;98733.25;;;-2.98;86.36
19751;BME280;4663;49.120;9.730;2023-01-28T05:02:18;98730.84;;;-3.03;86.08
19751;BME280;4663;49.120;9.730;2023-01-28T05:04:43;98726.19;;;-3.15;86.44
19751;BME280;4663;49.120;9.730;2023-01-28T05:07:09;98730.94;;;-3.04;85.89
19751;BME280;4663;49.120;9.730;2023-01-28T05:09:34;98727.50;;;-2.89;85.53
19751;BME280;4663;49.120;9.730;2023-01-28T05:12:01;98730.00;;;-3.03;85.72
19751;BME280;4663;49.120;9.730;2023-01-28T05:14:26;98728.69;;;-2.78;85.20
19751;BME280;4663;49.120;9.730;2023-01-28T05:16:51;98727.13;;;-2.98;84.96
19751;BME280;4663;49.120;9.730;2023-01-28T05:19:17;98731.31;;;-2.94;85.16
19751;BME280;4663;49.120;9.730;2023-01-28T05:21:42;98737.19;;;-2.89;84.73
19751;BME280;4663;49.120;9.730;2023-01-28T05:24:07;98741.69;;;-2.91;84.80
19751;BME280;4663;49.120;9.730;2023-01-28T05:26:33;98743.44;;;-3.08;84.99
19751;BME280;4663;49.120;9.730;2023-01-28T05:28:58;98738.88;;;-3.04;85.63
19751;BME280;4663;49.120;9.730;2023-01-28T05:31:23;98739.03;;;-3.07;85.36
19751;BME280;4663;49.120;9.730;2023-01-28T05:33:49;98748.88;;;-3.11;85.71
19751;BME280;4663;49.120;9.730;2023-01-28T05:36:17;98747.03;;;-3.09;85.56
19751;BME280;4663;49.120;9.730;2023-01-28T05:38:42;98744.25;;;-3.06;85.13
19751;BME280;4663;49.120;9.730;2023-01-28T05:41:07;98745.78;;;-3.02;85.18
19751;BME280;4663;49.120;9.730;2023-01-28T05:43:33;98748.50;;;-3.21;85.12
19751;BME280;4663;49.120;9.730;2023-01-28T05:45:58;98751.66;;;-3.48;85.49
19751;BME280;4663;49.120;9.730;2023-01-28T05:48:23;98746.53;;;-3.00;85.27
19751;BME280;4663;49.120;9.730;2023-01-28T05:50:49;98753.22;;;-2.92;85.01
19751;BME280;4663;49.120;9.730;2023-01-28T05:53:15;98749.03;;;-2.96;84.20
19751;BME280;4663;49.120;9.730;2023-01-28T05:55:40;98752.03;;;-2.87;84.17
19751;BME280;4663;49.120;9.730;2023-01-28T05:58:05;98750.84;;;-2.81;84.10
19751;BME280;4663;49.120;9.730;2023-01-28T06:00:31;98750.84;;;-2.81;83.58
19751;BME280;4663;49.120;9.730;2023-01-28T06:02:56;98754.63;;;-3.03;84.09
19751;BME280;4663;49.120;9.730;2023-01-28T06:05:22;98751.66;;;-2.96;83.99
19751;BME280;4663;49.120;9.730;2023-01-28T06:07:47;98754.06;;;-2.92;83.62
19751;BME280;4663;49.120;9.730;2023-01-28T06:10:13;98751.16;;;-3.03;84.03
19751;BME280;4663;49.120;9.730;2023-01-28T06:12:42;98758.09;;;-3.18;84.36
19751;BME280;4663;49.120;9.730;2023-01-28T06:15:07;98763.97;;;-3.13;84.23
19751;BME280;4663;49.120;9.730;2023-01-28T06:17:33;98768.66;;;-3.18;84.72
19751;BME280;4663;49.120;9.730;2023-01-28T06:19:58;98778.28;;;-3.17;84.75
19751;BME280;4663;49.120;9.730;2023-01-28T06:22:24;98772.50;;;-3.08;84.90
19751;BME280;4663;49.120;9.730;2023-01-28T06:24:49;98778.59;;;-3.06;84.03
19751;BME280;4663;49.120;9.730;2023-01-28T06:27:14;98785.72;;;-3.08;84.06
19751;BME280;4663;49.120;9.730;2023-01-28T06:29:40;98783.75;;;-3.38;85.29
19751;BME280;4663;49.120;9.730;2023-01-28T06:32:05;98788.59;;;-3.13;85.05
19751;BME280;4663;49.120;9.730;2023-01-28T06:34:31;98791.16;;;-3.11;84.49
19751;BME280;4663;49.120;9.730;2023-01-28T06:36:56;98795.78;;;-3.32;84.67
19751;BME280;4663;49.120;9.730;2023-01-28T06:39:22;98801.16;;;-3.34;84.84
19751;BME280;4663;49.120;9.730;2023-01-28T06:41:48;98808.41;;;-3.04;84.78
19751;BME280;4663;49.120;9.730;2023-01-28T06:44:14;98796.19;;;-3.22;84.85
19751;BME280;4663;49.120;9.730;2023-01-28T06:46:39;98803.84;;;-3.00;84.18
19751;BME280;4663;49.120;9.730;2023-01-28T06:49:05;98809.44;;;-3.06;84.23
19751;BME280;4663;49.120;9.730;2023-01-28T06:51:30;98809.50;;;-2.90;84.05
19751;BME280;4663;49.120;9.730;2023-01-28T06:53:56;98814.25;;;-3.15;84.46
19751;BME280;4663;49.120;9.730;2023-01-28T06:56:21;98813.06;;;-2.91;84.24
19751;BME280;4663;49.120;9.730;2023-01-28T06:58:46;98810.19;;;-2.87;83.86
19751;BME280;4663;49.120;9.730;2023-01-28T07:01:12;98826.06;;;-3.22;85.06
19751;BME280;4663;49.120;9.730;2023-01-28T07:03:37;98815.88;;;-3.12;84.90
19751;BME280;4663;49.120;9.730;2023-01-28T07:06:03;98814.59;;;-2.87;84.20
19751;BME280;4663;49.120;9.730;2023-01-28T07:08:28;98813.84;;;-3.07;84.54
19751;BME280;4663;49.120;9.730;2023-01-28T07:10:54;98821.06;;;-2.93;84.44
19751;BME280;4663;49.120;9.730;2023-01-28T07:13:19;98825.22;;;-3.05;84.39
19751;BME280;4663;49.120;9.730;2023-01-28T07:15:45;98828.22;;;-2.95;84.86
19751;BME280;4663;49.120;9.730;2023-01-28T07:18:10;98828.31;;;-3.49;84.83
19751;BME280;4663;49.120;9.730;2023-01-28T07:20:35;98824.59;;;-3.28;85.38
19751;BME280;4663;49.120;9.730;2023-01-28T07:23:01;98837.50;;;-3.21;86.09
19751;BME280;4663;49.120;9.730;2023-01-28T07:25:27;98834.41;;;-3.30;86.00
19751;BME280;4663;49.120;9.730;2023-01-28T07:27:52;98842.28;;;-3.65;86.97
19751;BME280;4663;49.120;9.730;2023-01-28T07:30:19;98841.22;;;-3.43;87.26
19751;BME280;4663;49.120;9.730;2023-01-28T07:32:45;98842.78;;;-3.21;85.96
19751;BME280;4663;49.120;9.730;2023-01-28T07:35:11;98838.59;;;-3.26;85.75
19751;BME280;4663;49.120;9.730;2023-01-28T07:37:36;98841.22;;;-3.26;85.55
19751;BME280;4663;49.120;9.730;2023-01-28T07:40:02;98856.75;;;-3.19;86.44
19751;BME280;4663;49.120;9.730;2023-01-28T07:42:28;98837.94;;;-3.48;85.94
19751;BME280;4663;49.120;9.730;2023-01-28T07:44:53;98845.91;;;-3.13;86.38
19751;BME280;4663;49.120;9.730;2023-01-28T07:47:18;98841.28;;;-3.09;85.39
19751;BME280;4663;49.120;9.730;2023-01-28T07:49:44;98849.47;;;-3.14;85.61
19751;BME280;4663;49.120;9.730;2023-01-28T07:52:09;98850.69;;;-3.04;85.34
19751;BME280;4663;49.120;9.730;2023-01-28T07:54:35;98852.41;;;-3.38;85.16
19751;BME280;4663;49.120;9.730;2023-01-28T07:57:00;98858.16;;;-3.12;86.12
19751;BME280;4663;49.120;9.730;2023-01-28T07:59:26;98851.66;;;-3.22;86.88
19751;BME280;4663;49.120;9.730;2023-01-28T08:01:51;98855.03;;;-3.03;85.94
19751;BME280;4663;49.120;9.730;2023-01-28T08:04:18;98850.47;;;-2.99;85.37
19751;BME280;4663;49.120;9.730;2023-01-28T08:06:43;98857.38;;;-2.96;85.21
19751;BME280;4663;49.120;9.730;2023-01-28T08:09:09;98858.84;;;-3.26;85.71
19751;BME280;4663;49.120;9.730;2023-01-28T08:11:37;98869.03;;;-3.54;86.61
19751;BME280;4663;49.120;9.730;2023-01-28T08:14:03;98865.34;;;-3.14;86.14
19751;BME280;4663;49.120;9.730;2023-01-28T08:16:29;98868.38;;;-3.04;86.06
19751;BME280;4663;49.120;9.730;2023-01-28T08:18:55;98873.31;;;-3.16;86.52
19751;BME280;4663;49.120;9.730;2023-01-28T08:21:20;98868.09;;;-3.00;85.51
19751;BME280;4663;49.120;9.730;2023-01-28T08:23:46;98875.75;;;-2.93;84.69
19751;BME280;4663;49.120;9.730;2023-01-28T08:26:11;98873.72;;;-3.06;85.22
19751;BME280;4663;49.120;9.730;2023-01-28T08:28:36;98879.91;;;-3.24;86.10
19751;BME280;4663;49.120;9.730;2023-01-28T08:31:02;98877.00;;;-3.18;86.79
19751;BME280;4663;49.120;9.730;2023-01-28T08:33:28;98878.91;;;-2.87;85.71
19751;BME280;4663;49.120;9.730;2023-01-28T08:35:53;98872.75;;;-2.87;85.11
19751;BME280;4663;49.120;9.730;2023-01-28T08:38:19;98878.50;;;-2.61;84.53
19751;BME280;4663;49.120;9.730;2023-01-28T08:40:46;98877.50;;;-2.94;85.29
19751;BME280;4663;49.120;9.730;2023-01-28T08:43:11;98881.56;;;-2.87;85.86
19751;BME280;4663;49.120;9.730;2023-01-28T08:45:38;98876.44;;;-3.07;84.98
19751;BME280;4663;49.120;9.730;2023-01-28T08:48:05;98885.59;;;-3.15;86.47
19751;BME280;4663;49.120;9.730;2023-01-28T08:50:34;98884.66;;;-3.31;86.92
19751;BME280;4663;49.120;9.730;2023-01-28T08:53:05;98881.94;;;-3.30;86.05
19751;BME280;4663;49.120;9.730;2023-01-28T08:55:32;98884.03;;;-3.01;86.51
19751;BME280;4663;49.120;9.730;2023-01-28T08:58:02;98882.16;;;-3.17;85.96
19751;BME280;4663;49.120;9.730;2023-01-28T09:00:27;98891.25;;;-2.87;86.00
19751;BME280;4663;49.120;9.730;2023-01-28T09:02:53;98881.72;;;-2.90;85.54
19751;BME280;4663;49.120;9.730;2023-01-28T09:05:19;98894.25;;;-2.93;85.52
19751;BME280;4663;49.120;9.730;2023-01-28T09:07:45;98885.81;;;-2.66;84.47
19751;BME280;4663;49.120;9.730;2023-01-28T09:10:11;98885.38;;;-2.75;85.07
19751;BME280;4663;49.120;9.730;2023-01-28T09:12:36;98888.25;;;-2.45;84.37
19751;BME280;4663;49.120;9.730;2023-01-28T09:15:03;98895.16;;;-2.77;84.43
19751;BME280;4663;49.120;9.730;2023-01-28T09:17:29;98888.50;;;-3.02;85.58
19751;BME280;4663;49.120;9.730;2023-01-28T09:19:54;98899.59;;;-2.95;85.72
19751;BME280;4663;49.120;9.730;2023-01-28T09:22:20;98900.75;;;-3.01;85.91
19751;BME280;4663;49.120;9.730;2023-01-28T09:24:45;98898.09;;;-2.65;85.26
19751;BME280;4663;49.120;9.730;2023-01-28T09:27:11;98904.03;;;-2.78;84.98
19751;BME280;4663;49.120;9.730;2023-01-28T09:29:36;98916.03;;;-2.54;84.45
19751;BME280;4663;49.120;9.730;2023-01-28T09:32:03;98911.94;;;-3.13;85.47
19751;BME280;4663;49.120;9.730;2023-01-28T09:34:29;98913.50;;;-2.73;84.83
19751;BME280;4663;49.120;9.730;2023-01-28T09:36:54;98922.69;;;-2.98;85.42
19751;BME280;4663;49.120;9.730;2023-01-28T09:39:20;98923.03;;;-2.53;84.34
19751;BME280;4663;49.120;9.730;2023-01-28T09:42:01;98923.94;;;-2.70;84.68
19751;BME280;4663;49.120;9.730;2023-01-28T09:44:59;98937.31;;;-2.73;85.47
19751;BME280;4663;49.120;9.730;2023-01-28T09:47:48;98946.16;;;-3.47;87.76
19751;BME280;4663;49.120;9.730;2023-01-28T09:52:50;98942.72;;;-3.12;88.23
19751;BME280;4663;49.120;9.730;2023-01-28T09:55:37;98949.06;;;-3.34;88.44
19751;BME280;4663;49.120;9.730;2023-01-28T09:58:14;98935.50;;;-2.91;88.21
19751;BME280;4663;49.120;9.730;2023-01-28T10:01:14;98939.59;;;-3.03;88.50
19751;BME280;4663;49.120;9.730;2023-01-28T10:04:08;98940.38;;;-2.47;87.34
19751;BME280;4663;49.120;9.730;2023-01-28T10:12:16;98936.06;;;-2.66;88.36
19751;BME280;4663;49.120;9.730;2023-01-28T10:17:31;98930.47;;;-2.78;88.11
19751;BME280;4663;49.120;9.730;2023-01-28T10:20:14;98929.53;;;-2.94;88.07
19751;BME280;4663;49.120;9.730;2023-01-28T10:22:45;98926.41;;;-2.85;88.25
19751;BME280;4663;49.120;9.730;2023-01-28T10:25:24;98928.84;;;-2.80;88.22
19751;BME280;4663;49.120;9.730;2023-01-28T10:27:52;98920.13;;;-2.65;87.23
19751;BME280;4663;49.120;9.730;2023-01-28T10:30:18;98922.66;;;-2.63;87.55
19751;BME280;4663;49.120;9.730;2023-01-28T10:33:03;98922.44;;;-3.11;88.52
19751;BME280;4663;49.120;9.730;2023-01-28T10:35:36;98921.81;;;-3.17;88.65
19751;BME280;4663;49.120;9.730;2023-01-28T10:38:06;98924.53;;;-2.83;88.26
19751;BME280;4663;49.120;9.730;2023-01-28T10:40:33;98920.28;;;-2.68;87.52
19751;BME280;4663;49.120;9.730;2023-01-28T10:42:59;98912.41;;;-2.87;87.43
19751;BME280;4663;49.120;9.730;2023-01-28T10:48:28;98916.59;;;-2.83;87.77
19751;BME280;4663;49.120;9.730;2023-01-28T10:50:59;98928.06;;;-2.65;86.93
19751;BME280;4663;49.120;9.730;2023-01-28T10:56:00;98932.31;;;-2.80;86.98
19751;BME280;4663;49.120;9.730;2023-01-28T10:58:28;98936.53;;;-2.93;87.31
19751;BME280;4663;49.120;9.730;2023-01-28T11:01:06;98936.19;;;-2.87;88.08
19751;BME280;4663;49.120;9.730;2023-01-28T11:03:32;98932.78;;;-2.89;88.08
19751;BME280;4663;49.120;9.730;2023-01-28T11:06:00;98936.19;;;-2.87;88.31
19751;BME280;4663;49.120;9.730;2023-01-28T11:08:28;98931.09;;;-2.55;87.13
19751;BME280;4663;49.120;9.730;2023-01-28T11:10:55;98935.59;;;-2.75;86.75
19751;BME280;4663;49.120;9.730;2023-01-28T11:13:29;98931.38;;;-2.79;86.22
19751;BME280;4663;49.120;9.730;2023-01-28T11:16:00;98939.56;;;-2.83;85.95
19751;BME280;4663;49.120;9.730;2023-01-28T11:18:29;98926.72;;;-2.91;86.35
19751;BME280;4663;49.120;9.730;2023-01-28T11:20:58;98921.59;;;-2.94;86.09
19751;BME280;4663;49.120;9.730;2023-01-28T11:23:28;98927.25;;;-2.67;85.27
19751;BME280;4663;49.120;9.730;2023-01-28T11:26:08;98929.50;;;-2.59;84.87
19751;BME280;4663;49.120;9.730;2023-01-28T11:28:40;98938.22;;;-2.92;85.25
19751;BME280;4663;49.120;9.730;2023-01-28T11:31:07;98936.97;;;-3.03;85.15
19751;BME280;4663;49.120;9.730;2023-01-28T11:33:43;98932.09;;;-2.75;85.75
19751;BME280;4663;49.120;9.730;2023-01-28T11:36:15;98930.53;;;-2.28;84.10
19751;BME280;4663;49.120;9.730;2023-01-28T11:38:57;98924.03;;;-2.38;83.50
19751;BME280;4663;49.120;9.730;2023-01-28T11:41:35;98917.75;;;-2.19;82.48
19751;BME280;4663;49.120;9.730;2023-01-28T11:44:20;98917.03;;;-2.39;82.66
19751;BME280;4663;49.120;9.730;2023-01-28T11:55:44;98929.13;;;-2.17;81.75
19751;BME280;4663;49.120;9.730;2023-01-28T12:01:08;98920.25;;;-2.50;80.82
19751;BME280;4663;49.120;9.730;2023-01-28T12:26:55;98933.09;;;-2.60;81.74
19751;BME280;4663;49.120;9.730;2023-01-28T12:30:02;98915.22;;;-2.90;81.35
19751;BME280;4663;49.120;9.730;2023-01-28T12:35:32;98925.56;;;-2.85;80.99
19751;BME280;4663;49.120;9.730;2023-01-28T12:43:26;98910.78;;;-3.07;81.37
19751;BME280;4663;49.120;9.730;2023-01-28T12:51:29;98902.44;;;-2.46;80.22
19751;BME280;4663;49.120;9.730;2023-01-28T12:54:15;98904.81;;;-2.93;80.07
19751;BME280;4663;49.120;9.730;2023-01-28T12:56:49;98915.13;;;-2.71;80.93
19751;BME280;4663;49.120;9.730;2023-01-28T12:59:38;98905.81;;;-2.60;80.55
19751;BME280;4663;49.120;9.730;2023-01-28T13:02:20;98905.38;;;-2.53;80.38
19751;BME280;4663;49.120;9.730;2023-01-28T13:10:01;98903.31;;;-2.64;80.35
19751;BME280;4663;49.120;9.730;2023-01-28T13:12:29;98902.97;;;-2.24;79.47
19751;BME280;4663;49.120;9.730;2023-01-28T13:14:57;98907.28;;;-2.55;79.95
19751;BME280;4663;49.120;9.730;2023-01-28T13:17:28;98910.22;;;-2.79;80.72
19751;BME280;4663;49.120;9.730;2023-01-28T13:19:54;98905.16;;;-2.48;80.67
19751;BME280;4663;49.120;9.730;2023-01-28T13:22:31;98899.38;;;-2.39;79.47
19751;BME280;4663;49.120;9.730;2023-01-28T13:25:17;98921.56;;;-3.30;80.96
19751;BME280;4663;49.120;9.730;2023-01-28T13:27:54;98921.91;;;-2.83;80.70
19751;BME280;4663;49.120;9.730;2023-01-28T13:30:24;98916.13;;;-2.56;79.34
19751;BME280;4663;49.120;9.730;2023-01-28T13:35:35;98913.09;;;-2.66;80.20
19751;BME280;4663;49.120;9.730;2023-01-28T13:38:18;98922.59;;;-2.62;79.44
19751;BME280;4663;49.120;9.730;2023-01-28T13:40:54;98918.00;;;-2.76;79.38
19751;BME280;4663;49.120;9.730;2023-01-28T13:46:11;98912.97;;;-2.29;79.21
19751;BME280;4663;49.120;9.730;2023-01-28T13:48:39;98922.47;;;-2.76;78.98
19751;BME280;4663;49.120;9.730;2023-01-28T13:51:22;98917.69;;;-2.69;79.57
19751;BME280;4663;49.120;9.730;2023-01-28T13:56:21;98926.41;;;-3.03;79.27
19751;BME280;4663;49.120;9.730;2023-01-28T14:01:57;98934.19;;;-3.00;79.35
19751;BME280;4663;49.120;9.730;2023-01-28T14:07:33;98925.09;;;-2.25;77.65
19751;BME280;4663;49.120;9.730;2023-01-28T14:15:41;98937.09;;;-2.35;78.21
19751;BME280;4663;49.120;9.730;2023-01-28T14:18:42;98932.91;;;-2.39;76.92
19751;BME280;4663;49.120;9.730;2023-01-28T14:21:11;98928.34;;;-2.71;77.57
19751;BME280;4663;49.120;9.730;2023-01-28T14:23:43;98945.97;;;-2.36;77.71
19751;BME280;4663;49.120;9.730;2023-01-28T14:31:28;98950.31;;;-2.35;77.43
19751;BME280;4663;49.120;9.730;2023-01-28T14:34:04;98951.75;;;-2.81;77.70
19751;BME280;4663;49.120;9.730;2023-01-28T14:36:30;98957.53;;;-2.90;78.25
19751;BME280;4663;49.120;9.730;2023-01-28T14:39:01;98967.34;;;-2.75;78.61
19751;BME280;4663;49.120;9.730;2023-01-28T14:41:29;98975.88;;;-2.69;78.37
19751;BME280;4663;49.120;9.730;2023-01-28T14:43:55;98966.25;;;-2.70;78.11
19751;BME280;4663;49.120;9.730;2023-01-28T14:51:40;98977.63;;;-3.05;79.10
19751;BME280;4663;49.120;9.730;2023-01-28T14:59:53;98976.53;;;-3.01;77.67
19751;BME280;4663;49.120;9.730;2023-01-28T15:02:24;98984.44;;;-2.82;78.00
19751;BME280;4663;49.120;9.730;2023-01-28T15:04:50;98984.91;;;-3.28;78.48
19751;BME280;4663;49.120;9.730;2023-01-28T15:07:20;98982.41;;;-2.94;77.54
19751;BME280;4663;49.120;9.730;2023-01-28T15:09:47;98988.94;;;-2.84;77.61
19751;BME280;4663;49.120;9.730;2023-01-28T15:12:23;98992.09;;;-2.95;77.53
19751;BME280;4663;49.120;9.730;2023-01-28T15:14:48;99000.50;;;-3.04;78.46
19751;BME280;4663;49.120;9.730;2023-01-28T15:17:22;98997.47;;;-2.96;78.00
19751;BME280;4663;49.120;9.730;2023-01-28T15:19:51;98996.00;;;-2.67;77.41
19751;BME280;4663;49.120;9.730;2023-01-28T15:22:18;98990.63;;;-2.83;77.64
19751;BME280;4663;49.120;9.730;2023-01-28T15:24:46;98997.03;;;-2.69;77.52
19751;BME280;4663;49.120;9.730;2023-01-28T15:27:16;99006.81;;;-2.71;77.38
19751;BME280;4663;49.120;9.730;2023-01-28T15:29:50;99003.16;;;-3.23;77.87
19751;BME280;4663;49.120;9.730;2023-01-28T15:32:23;99016.72;;;-3.12;78.82
19751;BME280;4663;49.120;9.730;2023-01-28T15:34:49;99005.94;;;-2.90;77.89
19751;BME280;4663;49.120;9.730;2023-01-28T15:37:16;99008.28;;;-2.83;77.97
19751;BME280;4663;49.120;9.730;2023-01-28T15:39:43;99012.56;;;-2.98;78.12
19751;BME280;4663;49.120;9.730;2023-01-28T15:42:23;99008.09;;;-2.98;78.46